Time,TemperatureF,DewpointF,PressureIn,WindDirection,WindDirectionDegrees,WindSpeedMPH,WindSpeedGustMPH,Humidity,HourlyPrecipIn,Conditions,Clouds,dailyrainin,SoftwareType,DateUTC
2013-09-15 00:10:00,54.9,54.3,30.03,ESE,112,0.0,-999.0,98,-99.99,,,0.00,Acu-Link.com,2013-09-15 04:10:00,
2013-09-15 00:25:00,54.9,54.6,30.03,SSE,157,0.0,-999.0,99,-99.99,,,0.00,Acu-Link.com,2013-09-15 04:25:00,
2013-09-15 00:40:00,54.9,54.6,30.03,WNW,292,0.0,-999.0,99,-99.99,,,0.00,Acu-Link.com,2013-09-15 04:40:00,
2013-09-15 00:56:00,55.2,54.9,30.04,West,270,0.0,-999.0,99,-99.99,,,0.00,Acu-Link.com,2013-09-15 04:56:00,
2013-09-15 01:11:00,55.2,54.6,30.03,SSW,202,2.2,-999.0,98,-99.99,,,0.00,Acu-Link.com,2013-09-15 05:11:00,
2013-09-15 01:26:00,55.0,54.4,30.03,SW,225,0.0,-999.0,98,-99.99,,,0.00,Acu-Link.com,2013-09-15 05:26:00,
2013-09-15 01:42:00,55.2,54.6,30.03,South,180,1.7,-999.0,98,-99.99,,,0.00,Acu-Link.com,2013-09-15 05:42:00,
2013-09-15 01:57:00,55.2,54.6,30.03,SW,225,0.0,-999.0,98,-99.99,,,0.00,Acu-Link.com,2013-09-15 05:57:00,
2013-09-15 02:12:00,55.4,54.8,30.04,West,270,0.0,-999.0,98,-99.99,,,0.00,Acu-Link.com,2013-09-15 06:12:00,
2013-09-15 02:27:00,55.4,54.8,30.04,SW,225,1.7,-999.0,98,-99.99,,,0.00,Acu-Link.com,2013-09-15 06:27:00,
2013-09-15 02:43:00,55.4,54.8,30.03,West,270,0.0,-999.0,98,-99.99,,,0.00,Acu-Link.com,2013-09-15 06:43:00,
2013-09-15 02:58:00,55.8,55.2,30.04,SSW,202,1.7,-999.0,98,-99.99,,,0.00,Acu-Link.com,2013-09-15 06:58:00,
2013-09-15 03:13:00,55.6,55.0,30.04,ENE,67,0.0,-999.0,98,-99.99,,,0.00,Acu-Link.com,2013-09-15 07:13:00,
2013-09-15 03:28:00,55.8,55.2,30.04,NNW,337,1.7,-999.0,98,-99.99,,,0.00,Acu-Link.com,2013-09-15 07:28:00,
2013-09-15 03:44:00,56.3,55.5,30.04,ENE,67,0.0,-999.0,97,-99.99,,,0.00,Acu-Link.com,2013-09-15 07:44:00,
2013-09-15 03:59:00,56.1,55.5,30.05,WNW,292,0.0,-999.0,98,-99.99,,,0.00,Acu-Link.com,2013-09-15 07:59:00,
2013-09-15 04:15:00,56.3,55.5,30.05,SW,225,2.7,-999.0,97,-99.99,,,0.00,Acu-Link.com,2013-09-15 08:15:00,
2013-09-15 04:31:00,56.5,55.4,30.04,SSW,202,1.7,-999.0,96,-99.99,,,0.00,Acu-Link.com,2013-09-15 08:31:00,
2013-09-15 04:46:00,56.5,55.4,30.05,West,270,0.0,-999.0,96,-99.99,,,0.00,Acu-Link.com,2013-09-15 08:46:00,
2013-09-15 05:01:00,56.1,55.3,30.06,SW,225,0.0,-999.0,97,-99.99,,,0.00,Acu-Link.com,2013-09-15 09:01:00,
2013-09-15 05:16:00,56.3,55.5,30.06,ESE,112,0.0,-999.0,97,-99.99,,,0.00,Acu-Link.com,2013-09-15 09:16:00,
2013-09-15 05:31:00,56.1,55.5,30.06,SW,225,0.0,-999.0,98,-99.99,,,0.00,Acu-Link.com,2013-09-15 09:31:00,
2013-09-15 05:46:00,56.1,55.5,30.07,West,270,0.0,-999.0,98,-99.99,,,0.00,Acu-Link.com,2013-09-15 09:46:00,
2013-09-15 06:02:00,56.1,55.8,30.07,West,270,0.0,-999.0,99,-99.99,,,0.00,Acu-Link.com,2013-09-15 10:02:00,
2013-09-15 06:17:00,56.1,55.5,30.08,SE,135,0.0,-999.0,98,-99.99,,,0.00,Acu-Link.com,2013-09-15 10:17:00,
2013-09-15 06:32:00,55.8,55.5,30.08,WSW,247,0.0,-999.0,99,-99.99,,,0.00,Acu-Link.com,2013-09-15 10:32:00,
2013-09-15 06:48:00,55.6,55.3,30.07,ESE,112,0.0,-999.0,99,-99.99,,,0.00,Acu-Link.com,2013-09-15 10:48:00,
2013-09-15 07:03:00,55.6,55.3,30.08,West,270,1.7,-999.0,99,-99.99,,,0.00,Acu-Link.com,2013-09-15 11:03:00,
2013-09-15 07:18:00,55.6,55.3,30.08,WSW,247,0.0,-999.0,99,-99.99,,,0.00,Acu-Link.com,2013-09-15 11:18:00,
2013-09-15 07:33:00,55.4,55.1,30.10,SSW,202,0.0,-999.0,99,-99.99,,,0.00,Acu-Link.com,2013-09-15 11:33:00,
2013-09-15 07:49:00,55.8,55.5,30.10,ESE,112,0.0,-999.0,99,-99.99,,,0.00,Acu-Link.com,2013-09-15 11:49:00,
2013-09-15 08:04:00,55.8,55.5,30.10,SE,135,0.0,-999.0,99,-99.99,,,0.00,Acu-Link.com,2013-09-15 12:04:00,
2013-09-15 08:19:00,55.8,55.5,30.10,WNW,292,0.0,-999.0,99,-99.99,,,0.00,Acu-Link.com,2013-09-15 12:19:00,
2013-09-15 08:34:00,56.7,56.4,30.10,WSW,247,0.0,-999.0,99,-99.99,,,0.00,Acu-Link.com,2013-09-15 12:34:00,
2013-09-15 08:50:00,57.6,57.0,30.10,WSW,247,0.0,-999.0,98,-99.99,,,0.00,Acu-Link.com,2013-09-15 12:50:00,
2013-09-15 09:05:00,59.0,58.1,30.11,SSW,202,1.1,-999.0,97,-99.99,,,0.00,Acu-Link.com,2013-09-15 13:05:00,
2013-09-15 09:20:00,60.8,58.8,30.11,East,90,1.1,-999.0,93,-99.99,,,0.00,Acu-Link.com,2013-09-15 13:20:00,
2013-09-15 09:36:00,61.5,59.5,30.11,SSE,157,0.0,-999.0,93,-99.99,,,0.00,Acu-Link.com,2013-09-15 13:36:00,
2013-09-15 09:51:00,63.3,60.3,30.12,West,270,2.7,-999.0,90,-99.99,,,0.00,Acu-Link.com,2013-09-15 13:51:00,
2013-09-15 10:06:00,64.8,60.5,30.12,South,180,1.1,-999.0,86,-99.99,,,0.00,Acu-Link.com,2013-09-15 14:06:00,
2013-09-15 10:22:00,65.5,60.2,30.12,East,90,1.1,-999.0,83,-99.99,,,0.00,Acu-Link.com,2013-09-15 14:22:00,
2013-09-15 10:37:00,65.7,60.7,30.12,ESE,112,2.7,-999.0,84,-99.99,,,0.00,Acu-Link.com,2013-09-15 14:37:00,
2013-09-15 10:52:00,66.4,61.7,30.12,West,270,1.1,-999.0,85,-99.99,,,0.00,Acu-Link.com,2013-09-15 14:52:00,
2013-09-15 11:07:00,68.0,61.9,30.11,South,180,2.7,-999.0,81,-99.99,,,0.00,Acu-Link.com,2013-09-15 15:07:00,
2013-09-15 11:22:00,68.7,61.2,30.12,NW,315,2.2,-999.0,77,-99.99,,,0.00,Acu-Link.com,2013-09-15 15:22:00,
2013-09-15 11:37:00,70.5,61.0,30.12,WNW,292,4.7,-999.0,72,-99.99,,,0.00,Acu-Link.com,2013-09-15 15:37:00,
2013-09-15 11:52:00,71.1,62.4,30.12,West,270,0.0,-999.0,74,-99.99,,,0.00,Acu-Link.com,2013-09-15 15:52:00,
2013-09-15 12:08:00,71.6,61.7,30.11,South,180,1.7,-999.0,71,-99.99,,,0.00,Acu-Link.com,2013-09-15 16:08:00,
2013-09-15 12:23:00,71.6,62.1,30.10,WNW,292,1.7,-999.0,72,-99.99,,,0.00,Acu-Link.com,2013-09-15 16:23:00,
2013-09-15 12:38:00,71.1,62.0,30.10,ESE,112,0.0,-999.0,73,-99.99,,,0.00,Acu-Link.com,2013-09-15 16:38:00,
2013-09-15 12:53:00,73.0,60.5,30.10,SW,225,1.1,-999.0,65,-99.99,,,0.00,Acu-Link.com,2013-09-15 16:53:00,
2013-09-15 13:09:00,72.5,61.7,30.10,SE,135,0.0,-999.0,69,-99.99,,,0.00,Acu-Link.com,2013-09-15 17:09:00,
2013-09-15 13:24:00,74.3,61.8,30.09,WNW,292,1.7,-999.0,65,-99.99,,,0.00,Acu-Link.com,2013-09-15 17:24:00,
2013-09-15 13:39:00,74.3,61.8,30.09,SE,135,1.1,-999.0,65,-99.99,,,0.00,Acu-Link.com,2013-09-15 17:39:00,
2013-09-15 13:55:00,74.5,61.5,30.10,West,270,1.7,-999.0,64,-99.99,,,0.00,Acu-Link.com,2013-09-15 17:55:00,
2013-09-15 14:10:00,73.9,61.8,30.09,South,180,0.0,-999.0,66,-99.99,,,0.00,Acu-Link.com,2013-09-15 18:10:00,
2013-09-15 14:25:00,75.6,61.6,30.08,ESE,112,0.0,-999.0,62,-99.99,,,0.00,Acu-Link.com,2013-09-15 18:25:00,
2013-09-15 14:41:00,77.7,62.2,30.07,SSE,157,0.0,-999.0,59,-99.99,,,0.00,Acu-Link.com,2013-09-15 18:41:00,
2013-09-15 14:56:00,76.6,61.7,30.07,WSW,247,0.0,-999.0,60,-99.99,,,0.00,Acu-Link.com,2013-09-15 18:56:00,
2013-09-15 15:11:00,76.5,61.1,30.07,SW,225,2.7,-999.0,59,-99.99,,,0.00,Acu-Link.com,2013-09-15 19:11:00,
2013-09-15 15:26:00,76.1,60.2,30.06,ESE,112,0.0,-999.0,58,-99.99,,,0.00,Acu-Link.com,2013-09-15 19:26:00,
2013-09-15 15:42:00,75.6,61.6,30.06,South,180,1.1,-999.0,62,-99.99,,,0.00,Acu-Link.com,2013-09-15 19:42:00,
2013-09-15 15:57:00,76.1,62.1,30.05,SW,225,2.2,-999.0,62,-99.99,,,0.00,Acu-Link.com,2013-09-15 19:57:00,
2013-09-15 16:12:00,75.9,61.5,30.05,West,270,0.0,-999.0,61,-99.99,,,0.00,Acu-Link.com,2013-09-15 20:12:00,
2013-09-15 16:27:00,74.8,61.8,30.05,ESE,112,4.2,-999.0,64,-99.99,,,0.00,Acu-Link.com,2013-09-15 20:27:00,
2013-09-15 16:43:00,75.4,61.9,30.04,WSW,247,0.0,-999.0,63,-99.99,,,0.00,Acu-Link.com,2013-09-15 20:43:00,
2013-09-15 16:58:00,74.7,62.1,30.04,ESE,112,0.0,-999.0,65,-99.99,,,0.00,Acu-Link.com,2013-09-15 20:58:00,
2013-09-15 17:13:00,74.5,62.4,30.04,SSE,157,0.0,-999.0,66,-99.99,,,0.00,Acu-Link.com,2013-09-15 21:13:00,
2013-09-15 17:28:00,74.5,63.2,30.04,SW,225,0.0,-999.0,68,-99.99,,,0.00,Acu-Link.com,2013-09-15 21:28:00,
2013-09-15 17:43:00,73.6,63.6,30.05,ESE,112,0.0,-999.0,71,-99.99,,,0.00,Acu-Link.com,2013-09-15 21:43:00,
2013-09-15 17:59:00,73.0,62.6,30.05,South,180,0.0,-999.0,70,-99.99,,,0.00,Acu-Link.com,2013-09-15 21:59:00,
2013-09-15 18:14:00,72.5,64.5,30.05,SW,225,0.0,-999.0,76,-99.99,,,0.00,Acu-Link.com,2013-09-15 22:14:00,
2013-09-15 18:29:00,71.6,64.4,30.05,NNW,337,0.0,-999.0,78,-99.99,,,0.00,Acu-Link.com,2013-09-15 22:29:00,
2013-09-15 18:45:00,70.5,63.3,30.05,SW,225,0.0,-999.0,78,-99.99,,,0.00,Acu-Link.com,2013-09-15 22:45:00,
2013-09-15 19:00:00,69.6,63.5,30.05,West,270,0.0,-999.0,81,-99.99,,,0.00,Acu-Link.com,2013-09-15 23:00:00,
2013-09-15 19:15:00,68.9,63.5,30.05,SSW,202,0.0,-999.0,83,-99.99,,,0.00,Acu-Link.com,2013-09-15 23:15:00,
2013-09-15 19:31:00,68.0,63.6,30.06,SSE,157,0.0,-999.0,86,-99.99,,,0.00,Acu-Link.com,2013-09-15 23:31:00,
2013-09-15 19:46:00,67.1,63.7,30.06,SSW,202,0.0,-999.0,89,-99.99,,,0.00,Acu-Link.com,2013-09-15 23:46:00,
2013-09-15 20:01:00,66.6,63.9,30.06,SSE,157,0.0,-999.0,91,-99.99,,,0.00,Acu-Link.com,2013-09-16 00:01:00,
2013-09-15 20:17:00,65.8,63.4,30.06,East,90,0.0,-999.0,92,-99.99,,,0.00,Acu-Link.com,2013-09-16 00:17:00,
2013-09-15 20:32:00,64.9,62.8,30.06,SE,135,0.0,-999.0,93,-99.99,,,0.00,Acu-Link.com,2013-09-16 00:32:00,
2013-09-15 20:47:00,64.2,62.7,30.07,ESE,112,1.1,-999.0,95,-99.99,,,0.00,Acu-Link.com,2013-09-16 00:47:00,
2013-09-15 21:03:00,63.9,62.7,30.07,ENE,67,0.0,-999.0,96,-99.99,,,0.00,Acu-Link.com,2013-09-16 01:03:00,
2013-09-15 21:18:00,63.5,62.0,30.08,SSW,202,0.0,-999.0,95,-99.99,,,0.00,Acu-Link.com,2013-09-16 01:18:00,
2013-09-15 21:33:00,63.5,62.3,30.08,SW,225,0.0,-999.0,96,-99.99,,,0.00,Acu-Link.com,2013-09-16 01:33:00,
2013-09-15 21:49:00,63.0,61.8,30.08,West,270,0.0,-999.0,96,-99.99,,,0.00,Acu-Link.com,2013-09-16 01:49:00,
2013-09-15 22:04:00,62.6,61.7,30.08,WNW,292,0.0,-999.0,97,-99.99,,,0.00,Acu-Link.com,2013-09-16 02:04:00,
2013-09-15 22:19:00,62.2,61.3,30.08,West,270,0.0,-999.0,97,-99.99,,,0.00,Acu-Link.com,2013-09-16 02:19:00,
2013-09-15 22:34:00,62.1,61.5,30.09,WSW,247,0.0,-999.0,98,-99.99,,,0.00,Acu-Link.com,2013-09-16 02:34:00,
2013-09-15 22:49:00,61.5,60.9,30.09,NE,45,0.0,-999.0,98,-99.99,,,0.00,Acu-Link.com,2013-09-16 02:49:00,
2013-09-15 23:05:00,61.0,60.4,30.08,East,90,0.0,-999.0,98,-99.99,,,0.00,Acu-Link.com,2013-09-16 03:05:00,
2013-09-15 23:20:00,60.8,60.5,30.09,ENE,67,0.0,-999.0,99,-99.99,,,0.00,Acu-Link.com,2013-09-16 03:20:00,
2013-09-15 23:36:00,60.6,60.3,30.08,NW,315,0.0,-999.0,99,-99.99,,,0.00,Acu-Link.com,2013-09-16 03:36:00,
2013-09-15 23:51:00,60.4,60.1,30.09,ESE,112,0.0,-999.0,99,-99.99,,,0.00,Acu-Link.com,2013-09-16 03:51:00,